Ryuoh Maru No.2 — JM5900 — position and weather

sailwx.info

Track history (hours):
 
Tides and Currents Weather Stations Pressure Air Temp Water Temp Dewpoint Dewpoint Depression Visibility Wind Speed Wind Dir Waves Ship Positions

Ryuoh Maru No.2

Last reported at 2017-Dec-08 23:13 UTC. Time now 2017-Dec-11 00:31 UTC.
Position N 41°25' E 141°34'.

Length 80 m; draft 4.9 m.

Type: Cargo ship. MMSI: 431401218.

Date/timePositionNaut miles runAvg speedWind from/ knotsBaromVisibWave heightAir tempDewpointWater temp
2017-Dec-08 23:13N 41°25' E 141°34'611.6
2017-Dec-08 22:44N 41°29' E 141°29'311.8
2017-Dec-08 22:30N 41°30' E 141°25'612.2
2017-Dec-08 22:01N 41°32' E 141°18'612.8
2017-Dec-08 21:30N 41°35' E 141°10'714.7
2017-Dec-08 21:01N 41°37' E 141°01'713.9
2017-Dec-08 20:30N 41°40' E 140°52'611.7
2017-Dec-08 20:00N 41°42' E 140°45'510.0
2017-Dec-08 19:30N 41°46' E 140°40'3 5.1
2017-Dec-08 18:59N 41°48' E 140°39'0 0.0
2017-Dec-08 18:29N 41°48' E 140°39'0 0.0
2017-Dec-08 17:56N 41°48' E 140°39'0 0.0
2017-Dec-08 17:29N 41°48' E 140°39'0 0.0
2017-Dec-08 16:53N 41°48' E 140°39'0 0.0
2017-Dec-08 16:26N 41°48' E 140°39'0 0.0
2017-Dec-08 15:56N 41°48' E 140°39'0 0.0
2017-Dec-08 15:29N 41°48' E 140°39'0 0.0
2017-Dec-08 14:59N 41°48' E 140°39'0 0.0
2017-Dec-08 14:26N 41°48' E 140°39'0 0.0
2017-Dec-08 13:56N 41°48' E 140°39'0 0.0
2017-Dec-08 13:29N 41°48' E 140°39'0 0.0
2017-Dec-08 12:59N 41°48' E 140°39'0 0.5
2017-Dec-08 12:30N 41°48' E 140°39'3 5.8
2017-Dec-08 12:00N 41°46' E 140°41'510.5
2017-Dec-08 11:30N 41°40' E 140°40'510.9
2017-Dec-08 11:00N 41°35' E 140°39'510.7
2017-Dec-08 10:30N 41°29' E 140°39'510.7
2017-Dec-08 10:00N 41°24' E 140°39'510.4
2017-Dec-08 09:30N 41°19' E 140°39'510.6
2017-Dec-08 09:00N 41°14' E 140°41'611.0
2017-Dec-08 08:28N 41°08' E 140°43'510.8
2017-Dec-08 08:00N 41°03' E 140°43'610.8
2017-Dec-08 07:29N 40°57' E 140°44'510.4
2017-Dec-08 07:00N 40°52' E 140°45'17 0.7
2017-Dec-07 04:58N 41°10' E 140°42'511.2
2017-Dec-07 04:31N 41°15' E 140°41'611.6
2017-Dec-07 04:01N 41°21' E 140°40'611.4
2017-Dec-07 03:31N 41°26' E 140°40'510.3
2017-Dec-07 03:00N 41°31' E 140°39'3 4.8
2017-Dec-07 02:26N 41°34' E 140°40'3 7.9
2017-Dec-07 02:00N 41°37' E 140°41'510.8
2017-Dec-07 01:30N 41°43' E 140°41'5 9.6
2017-Dec-07 01:00N 41°48' E 140°40'1 2.1
2017-Dec-07 00:28N 41°48' E 140°39'0 0.0
2017-Dec-06 23:58N 41°48' E 140°39'0 0.0
2017-Dec-06 23:25N 41°48' E 140°39'0 0.0
2017-Dec-06 22:58N 41°48' E 140°39'0 0.0
2017-Dec-06 22:25N 41°48' E 140°39'0 0.0
2017-Dec-06 21:58N 41°48' E 140°39'0 0.0
2017-Dec-06 21:13N 41°48' E 140°39'0 0.0
2017-Dec-06 20:55N 41°48' E 140°39'  
2017-Dec-03 21:02N 41°11' E 141°32'011.2
2017-Dec-03 21:00N 41°11' E 141°32'1411.4
2017-Dec-03 19:47N 41°25' E 141°32'411.3
2017-Dec-03 19:27N 41°28' E 141°29'512.3
2017-Dec-03 19:00N 41°31' E 141°23'612.1
2017-Dec-03 18:31N 41°33' E 141°15'714.6
2017-Dec-03 18:00N 41°36' E 141°06'815.7
2017-Dec-03 17:30N 41°39' E 140°57'613.0
2017-Dec-03 17:00N 41°42' E 140°49'611.1
2017-Dec-03 16:30N 41°44' E 140°42'5 9.4
2017-Dec-03 16:00N 41°48' E 140°39'1 0.9
2017-Dec-03 15:26N 41°48' E 140°39'0 0.0
2017-Dec-03 14:59N 41°48' E 140°39'0 0.0
2017-Dec-03 14:29N 41°48' E 140°39'0 0.0
2017-Dec-03 13:59N 41°48' E 140°39'0 0.0
2017-Dec-03 13:29N 41°48' E 140°39'0 0.0
2017-Dec-03 12:59N 41°48' E 140°39'0 0.0
2017-Dec-03 12:29N 41°48' E 140°39'0 0.0
2017-Dec-03 11:59N 41°48' E 140°39'0 0.0
2017-Dec-03 11:29N 41°48' E 140°39'0 0.0
2017-Dec-03 10:59N 41°48' E 140°39'0 0.0
2017-Dec-03 10:29N 41°48' E 140°39'0 0.0
2017-Dec-03 09:59N 41°48' E 140°39'0 0.0
2017-Dec-03 09:29N 41°48' E 140°39'0 0.0
2017-Dec-03 08:59N 41°48' E 140°39'0 0.0
2017-Dec-03 08:30N 41°48' E 140°39'0 0.9
2017-Dec-03 08:00N 41°48' E 140°39'2 3.1
2017-Dec-03 07:29N 41°47' E 140°40'0 0.0
2017-Dec-03 06:59N 41°46' E 140°40'0 0.1
2017-Dec-03 06:20N 41°46' E 140°40'0 0.0
2017-Dec-03 05:59N 41°46' E 140°40'0 0.1
2017-Dec-03 05:29N 41°46' E 140°40'0 0.0
2017-Dec-03 04:59N 41°47' E 140°40'0 0.0
2017-Dec-03 04:29N 41°47' E 140°40'0 0.1
2017-Dec-03 03:59N 41°47' E 140°40'0 0.0
2017-Dec-03 03:29N 41°47' E 140°40'0 0.1
2017-Dec-03 02:59N 41°47' E 140°40'0 0.1
2017-Dec-03 02:29N 41°46' E 140°40'0 0.0
2017-Dec-03 01:59N 41°46' E 140°40'0 0.0
2017-Dec-03 01:29N 41°46' E 140°40'0 0.0
2017-Dec-03 00:56N 41°46' E 140°40'0 0.1
2017-Dec-03 00:26N 41°46' E 140°40'0 0.0
2017-Dec-02 23:59N 41°46' E 140°40'0 0.0
2017-Dec-02 23:29N 41°46' E 140°40'0 0.0
2017-Dec-02 22:59N 41°46' E 140°40'0 0.0
2017-Dec-02 22:29N 41°46' E 140°40'0 0.1
2017-Dec-02 21:59N 41°46' E 140°40'0 0.0
2017-Dec-02 21:26N 41°46' E 140°40'0 0.0
2017-Dec-02 20:59N 41°46' E 140°40'0 0.0
2017-Dec-02 20:29N 41°46' E 140°40'0 0.0
2017-Dec-02 19:53N 41°46' E 140°40'0 0.0
2017-Dec-02 19:26N 41°46' E 140°40'0 0.0
2017-Dec-02 18:56N 41°46' E 140°40'0 0.0
2017-Dec-02 18:23N 41°46' E 140°40'0 0.0
2017-Dec-02 17:56N 41°46' E 140°40'0 0.0
2017-Dec-02 17:26N 41°47' E 140°40'0 0.0
2017-Dec-02 16:59N 41°47' E 140°40'0 0.0
2017-Dec-02 16:29N 41°47' E 140°40'0 0.1
2017-Dec-02 15:59N 41°47' E 140°40'0 0.0
2017-Dec-02 15:29N 41°47' E 140°40'0 0.0
2017-Dec-02 14:59N 41°47' E 140°40'0 0.0
2017-Dec-02 14:29N 41°47' E 140°40'0 0.0
2017-Dec-02 13:59N 41°47' E 140°40'0 0.1
2017-Dec-02 13:23N 41°46' E 140°40'0 0.1
2017-Dec-02 12:59N 41°47' E 140°40'0 0.2
2017-Dec-02 12:29N 41°47' E 140°40'1 1.8
2017-Dec-02 12:00N 41°46' E 140°41'510.5
2017-Dec-02 11:30N 41°41' E 140°41'611.4
2017-Dec-02 11:00N 41°35' E 140°40'612.2
2017-Dec-02 10:30N 41°29' E 140°39'611.7
2017-Dec-02 10:00N 41°23' E 140°38'510.4
2017-Dec-02 09:30N 41°18' E 140°37'4 7.8
2017-Dec-02 09:00N 41°14' E 140°39'5 9.7
2017-Dec-02 08:30N 41°10' E 140°42'711.1
2017-Dec-02 07:55N 41°04' E 140°43'611.2
2017-Dec-02 07:23N 40°58' E 140°44'8 0.8
2017-Dec-01 21:56N 40°50' E 140°45'1 2.2
2017-Dec-01 21:30N 40°51' E 140°45'4 7.1
2017-Dec-01 21:00N 40°54' E 140°45'510.1
2017-Dec-01 20:30N 40°59' E 140°45'510.6
2017-Dec-01 19:59N 41°05' E 140°44'1 1.5
2017-Dec-01 19:29N 41°06' E 140°43'510.4
2017-Dec-01 19:00N 41°10' E 140°42'510.5
2017-Dec-01 18:30N 41°16' E 140°41'611.2
2017-Dec-01 18:00N 41°21' E 140°40'510.0
2017-Dec-01 17:30N 41°26' E 140°39'4 8.8
2017-Dec-01 17:00N 41°30' E 140°39'5 9.7
2017-Dec-01 16:30N 41°35' E 140°39'510.4
2017-Dec-01 16:00N 41°40' E 140°39'510.7
2017-Dec-01 15:30N 41°46' E 140°40'3 5.5
2017-Dec-01 15:00N 41°48' E 140°39'0 0.1
2017-Dec-01 14:30N 41°48' E 140°39'0 0.0
2017-Dec-01 13:57N 41°48' E 140°39'0 0.0
2017-Dec-01 13:30N 41°48' E 140°39'0 0.0
2017-Dec-01 13:00N 41°48' E 140°39'0 0.0
2017-Dec-01 12:27N 41°48' E 140°39'0 0.0
2017-Dec-01 12:00N 41°48' E 140°39'0 0.0
2017-Dec-01 11:30N 41°48' E 140°39'0 0.0
2017-Dec-01 11:00N 41°48' E 140°39'0 0.0
2017-Dec-01 10:30N 41°48' E 140°39'2 3.4
2017-Dec-01 10:00N 41°47' E 140°40'1 2.0
2017-Dec-01 09:28N 41°46' E 140°41'0 0.1
2017-Dec-01 08:58N 41°46' E 140°41'0 0.0
2017-Dec-01 08:28N 41°46' E 140°41'0 0.0
2017-Dec-01 07:58N 41°46' E 140°41'0 0.1
2017-Dec-01 07:22N 41°46' E 140°41'0 0.1
2017-Dec-01 06:55N 41°46' E 140°41'0 0.1
2017-Dec-01 06:19N 41°46' E 140°41'0 0.1
2017-Dec-01 05:58N 41°46' E 140°41'0 0.0
2017-Dec-01 05:28N 41°46' E 140°41'0 0.1
2017-Dec-01 04:58N 41°46' E 140°41'0 0.0
2017-Dec-01 04:28N 41°46' E 140°41'0 0.1
2017-Dec-01 03:52N 41°46' E 140°41'0 0.0
2017-Dec-01 03:25N 41°46' E 140°41'0 0.0
2017-Dec-01 02:58N 41°46' E 140°41'0 0.1
2017-Dec-01 02:28N 41°46' E 140°41'0 0.0
2017-Dec-01 01:52N 41°46' E 140°41'0 0.0
2017-Dec-01 01:28N 41°46' E 140°41'0 0.0
2017-Dec-01 00:58N 41°46' E 140°41'0 0.0
2017-Dec-01 00:28N 41°46' E 140°41'0 0.0
2017-Nov-30 23:58N 41°46' E 140°41'0 0.1
2017-Nov-30 23:25N 41°46' E 140°41'0 0.0
2017-Nov-30 22:58N 41°46' E 140°41'0 0.0
2017-Nov-30 22:28N 41°46' E 140°41'0 0.0
2017-Nov-30 21:58N 41°46' E 140°41'0 0.1
2017-Nov-30 21:28N 41°46' E 140°41'0 0.0
2017-Nov-30 20:58N 41°46' E 140°41'0 0.1
2017-Nov-30 20:28N 41°46' E 140°41'0 0.1
2017-Nov-30 19:55N 41°46' E 140°41'0 0.1
2017-Nov-30 19:28N 41°46' E 140°41'0 0.0
2017-Nov-30 18:58N 41°46' E 140°41'0 0.0
2017-Nov-30 18:25N 41°46' E 140°41'0 0.0
2017-Nov-30 17:55N 41°46' E 140°41'0 0.0
2017-Nov-30 17:28N 41°46' E 140°41'0 0.1
2017-Nov-30 16:55N 41°46' E 140°41'0 0.1
2017-Nov-30 16:25N 41°46' E 140°41'0 0.1
2017-Nov-30 15:55N 41°46' E 140°41'0 0.0
2017-Nov-30 15:28N 41°46' E 140°41'0 0.0
2017-Nov-30 14:58N 41°46' E 140°41'0 0.0
2017-Nov-30 14:28N 41°46' E 140°41'0 0.0
2017-Nov-30 13:55N 41°46' E 140°41'0 0.0
2017-Nov-30 13:19N 41°46' E 140°41'0 0.0
2017-Nov-30 12:58N 41°46' E 140°41'0 0.0
2017-Nov-30 12:28N 41°46' E 140°41'0 0.1
2017-Nov-30 11:58N 41°46' E 140°41'0 0.8
2017-Nov-30 11:30N 41°46' E 140°41'5 9.3
2017-Nov-30 11:00N 41°42' E 140°44'510.3
2017-Nov-30 10:30N 41°39' E 140°50'4 8.6
2017-Nov-30 10:00N 41°37' E 140°55'4 8.4
2017-Nov-30 09:30N 41°34' E 140°59'5 9.7
2017-Nov-30 09:00N 41°32' E 141°05'510.0
2017-Nov-30 08:30N 41°30' E 141°11'5 9.8
2017-Nov-30 08:00N 41°29' E 141°18'5 9.5
2017-Nov-30 07:30N 41°28' E 141°24'4 8.5
2017-Nov-30 07:00N 41°28' E 141°29'12 9.4
2017-Nov-30 05:44N 41°16' E 141°33'210.1
2017-Nov-30 05:30N 41°14' E 141°33'610.1
2017-Nov-30 04:53N 41°07' E 141°33'  
Track history (hours):
 
Tides and Currents Weather Stations Pressure Air Temp Water Temp Dewpoint Dewpoint Depression Visibility Wind Speed Wind Dir Waves Ship Positions

Ryuoh Maru No.2

Last reported at 2017-Dec-08 23:13 UTC. Time now 2017-Dec-11 00:31 UTC.
Position N 41°25' E 141°34'.

Length 80 m; draft 4.9 m.

Type: Cargo ship. MMSI: 431401218.

Date/timePositionNaut miles runAvg speedWind from/ knotsBaromVisibWave heightAir tempDewpointWater temp
2017-Dec-08 23:13N 41°25' E 141°34'611.6
2017-Dec-08 22:44N 41°29' E 141°29'311.8
2017-Dec-08 22:30N 41°30' E 141°25'612.2
2017-Dec-08 22:01N 41°32' E 141°18'612.8
2017-Dec-08 21:30N 41°35' E 141°10'714.7
2017-Dec-08 21:01N 41°37' E 141°01'713.9
2017-Dec-08 20:30N 41°40' E 140°52'611.7
2017-Dec-08 20:00N 41°42' E 140°45'510.0
2017-Dec-08 19:30N 41°46' E 140°40'3 5.1
2017-Dec-08 18:59N 41°48' E 140°39'0 0.0
2017-Dec-08 18:29N 41°48' E 140°39'0 0.0
2017-Dec-08 17:56N 41°48' E 140°39'0 0.0
2017-Dec-08 17:29N 41°48' E 140°39'0 0.0
2017-Dec-08 16:53N 41°48' E 140°39'0 0.0
2017-Dec-08 16:26N 41°48' E 140°39'0 0.0
2017-Dec-08 15:56N 41°48' E 140°39'0 0.0
2017-Dec-08 15:29N 41°48' E 140°39'0 0.0
2017-Dec-08 14:59N 41°48' E 140°39'0 0.0
2017-Dec-08 14:26N 41°48' E 140°39'0 0.0
2017-Dec-08 13:56N 41°48' E 140°39'0 0.0
2017-Dec-08 13:29N 41°48' E 140°39'0 0.0
2017-Dec-08 12:59N 41°48' E 140°39'0 0.5
2017-Dec-08 12:30N 41°48' E 140°39'3 5.8
2017-Dec-08 12:00N 41°46' E 140°41'510.5
2017-Dec-08 11:30N 41°40' E 140°40'510.9
2017-Dec-08 11:00N 41°35' E 140°39'510.7
2017-Dec-08 10:30N 41°29' E 140°39'510.7
2017-Dec-08 10:00N 41°24' E 140°39'510.4
2017-Dec-08 09:30N 41°19' E 140°39'510.6
2017-Dec-08 09:00N 41°14' E 140°41'611.0
2017-Dec-08 08:28N 41°08' E 140°43'510.8
2017-Dec-08 08:00N 41°03' E 140°43'610.8
2017-Dec-08 07:29N 40°57' E 140°44'510.4
2017-Dec-08 07:00N 40°52' E 140°45'17 0.7
2017-Dec-07 04:58N 41°10' E 140°42'511.2
2017-Dec-07 04:31N 41°15' E 140°41'611.6
2017-Dec-07 04:01N 41°21' E 140°40'611.4
2017-Dec-07 03:31N 41°26' E 140°40'510.3
2017-Dec-07 03:00N 41°31' E 140°39'3 4.8
2017-Dec-07 02:26N 41°34' E 140°40'3 7.9
2017-Dec-07 02:00N 41°37' E 140°41'510.8
2017-Dec-07 01:30N 41°43' E 140°41'5 9.6
2017-Dec-07 01:00N 41°48' E 140°40'1 2.1
2017-Dec-07 00:28N 41°48' E 140°39'0 0.0
2017-Dec-06 23:58N 41°48' E 140°39'0 0.0
2017-Dec-06 23:25N 41°48' E 140°39'0 0.0
2017-Dec-06 22:58N 41°48' E 140°39'0 0.0
2017-Dec-06 22:25N 41°48' E 140°39'0 0.0
2017-Dec-06 21:58N 41°48' E 140°39'0 0.0
2017-Dec-06 21:13N 41°48' E 140°39'0 0.0
2017-Dec-06 20:55N 41°48' E 140°39'  
2017-Dec-03 21:02N 41°11' E 141°32'011.2
2017-Dec-03 21:00N 41°11' E 141°32'1411.4
2017-Dec-03 19:47N 41°25' E 141°32'411.3
2017-Dec-03 19:27N 41°28' E 141°29'512.3
2017-Dec-03 19:00N 41°31' E 141°23'612.1
2017-Dec-03 18:31N 41°33' E 141°15'714.6
2017-Dec-03 18:00N 41°36' E 141°06'815.7
2017-Dec-03 17:30N 41°39' E 140°57'613.0
2017-Dec-03 17:00N 41°42' E 140°49'611.1
2017-Dec-03 16:30N 41°44' E 140°42'5 9.4
2017-Dec-03 16:00N 41°48' E 140°39'1 0.9
2017-Dec-03 15:26N 41°48' E 140°39'0 0.0
2017-Dec-03 14:59N 41°48' E 140°39'0 0.0
2017-Dec-03 14:29N 41°48' E 140°39'0 0.0
2017-Dec-03 13:59N 41°48' E 140°39'0 0.0
2017-Dec-03 13:29N 41°48' E 140°39'0 0.0
2017-Dec-03 12:59N 41°48' E 140°39'0 0.0
2017-Dec-03 12:29N 41°48' E 140°39'0 0.0
2017-Dec-03 11:59N 41°48' E 140°39'0 0.0
2017-Dec-03 11:29N 41°48' E 140°39'0 0.0
2017-Dec-03 10:59N 41°48' E 140°39'0 0.0
2017-Dec-03 10:29N 41°48' E 140°39'0 0.0
2017-Dec-03 09:59N 41°48' E 140°39'0 0.0
2017-Dec-03 09:29N 41°48' E 140°39'0 0.0
2017-Dec-03 08:59N 41°48' E 140°39'0 0.0
2017-Dec-03 08:30N 41°48' E 140°39'0 0.9
2017-Dec-03 08:00N 41°48' E 140°39'2 3.1
2017-Dec-03 07:29N 41°47' E 140°40'0 0.0
2017-Dec-03 06:59N 41°46' E 140°40'0 0.1
2017-Dec-03 06:20N 41°46' E 140°40'0 0.0
2017-Dec-03 05:59N 41°46' E 140°40'0 0.1
2017-Dec-03 05:29N 41°46' E 140°40'0 0.0
2017-Dec-03 04:59N 41°47' E 140°40'0 0.0
2017-Dec-03 04:29N 41°47' E 140°40'0 0.1
2017-Dec-03 03:59N 41°47' E 140°40'0 0.0
2017-Dec-03 03:29N 41°47' E 140°40'0 0.1
2017-Dec-03 02:59N 41°47' E 140°40'0 0.1
2017-Dec-03 02:29N 41°46' E 140°40'0 0.0
2017-Dec-03 01:59N 41°46' E 140°40'0 0.0
2017-Dec-03 01:29N 41°46' E 140°40'0 0.0
2017-Dec-03 00:56N 41°46' E 140°40'0 0.1
2017-Dec-03 00:26N 41°46' E 140°40'0 0.0
2017-Dec-02 23:59N 41°46' E 140°40'0 0.0
2017-Dec-02 23:29N 41°46' E 140°40'0 0.0
2017-Dec-02 22:59N 41°46' E 140°40'0 0.0
2017-Dec-02 22:29N 41°46' E 140°40'0 0.1
2017-Dec-02 21:59N 41°46' E 140°40'0 0.0
2017-Dec-02 21:26N 41°46' E 140°40'0 0.0
2017-Dec-02 20:59N 41°46' E 140°40'0 0.0
2017-Dec-02 20:29N 41°46' E 140°40'0 0.0
2017-Dec-02 19:53N 41°46' E 140°40'0 0.0
2017-Dec-02 19:26N 41°46' E 140°40'0 0.0
2017-Dec-02 18:56N 41°46' E 140°40'0 0.0
2017-Dec-02 18:23N 41°46' E 140°40'0 0.0
2017-Dec-02 17:56N 41°46' E 140°40'0 0.0
2017-Dec-02 17:26N 41°47' E 140°40'0 0.0
2017-Dec-02 16:59N 41°47' E 140°40'0 0.0
2017-Dec-02 16:29N 41°47' E 140°40'0 0.1
2017-Dec-02 15:59N 41°47' E 140°40'0 0.0
2017-Dec-02 15:29N 41°47' E 140°40'0 0.0
2017-Dec-02 14:59N 41°47' E 140°40'0 0.0
2017-Dec-02 14:29N 41°47' E 140°40'0 0.0
2017-Dec-02 13:59N 41°47' E 140°40'0 0.1
2017-Dec-02 13:23N 41°46' E 140°40'0 0.1
2017-Dec-02 12:59N 41°47' E 140°40'0 0.2
2017-Dec-02 12:29N 41°47' E 140°40'1 1.8
2017-Dec-02 12:00N 41°46' E 140°41'510.5
2017-Dec-02 11:30N 41°41' E 140°41'611.4
2017-Dec-02 11:00N 41°35' E 140°40'612.2
2017-Dec-02 10:30N 41°29' E 140°39'611.7
2017-Dec-02 10:00N 41°23' E 140°38'510.4
2017-Dec-02 09:30N 41°18' E 140°37'4 7.8
2017-Dec-02 09:00N 41°14' E 140°39'5 9.7
2017-Dec-02 08:30N 41°10' E 140°42'711.1
2017-Dec-02 07:55N 41°04' E 140°43'611.2
2017-Dec-02 07:23N 40°58' E 140°44'8 0.8
2017-Dec-01 21:56N 40°50' E 140°45'1 2.2
2017-Dec-01 21:30N 40°51' E 140°45'4 7.1
2017-Dec-01 21:00N 40°54' E 140°45'510.1
2017-Dec-01 20:30N 40°59' E 140°45'510.6
2017-Dec-01 19:59N 41°05' E 140°44'1 1.5
2017-Dec-01 19:29N 41°06' E 140°43'510.4
2017-Dec-01 19:00N 41°10' E 140°42'510.5
2017-Dec-01 18:30N 41°16' E 140°41'611.2
2017-Dec-01 18:00N 41°21' E 140°40'510.0
2017-Dec-01 17:30N 41°26' E 140°39'4 8.8
2017-Dec-01 17:00N 41°30' E 140°39'5 9.7
2017-Dec-01 16:30N 41°35' E 140°39'510.4
2017-Dec-01 16:00N 41°40' E 140°39'510.7
2017-Dec-01 15:30N 41°46' E 140°40'3 5.5
2017-Dec-01 15:00N 41°48' E 140°39'0 0.1
2017-Dec-01 14:30N 41°48' E 140°39'0 0.0
2017-Dec-01 13:57N 41°48' E 140°39'0 0.0
2017-Dec-01 13:30N 41°48' E 140°39'0 0.0
2017-Dec-01 13:00N 41°48' E 140°39'0 0.0
2017-Dec-01 12:27N 41°48' E 140°39'0 0.0
2017-Dec-01 12:00N 41°48' E 140°39'0 0.0
2017-Dec-01 11:30N 41°48' E 140°39'0 0.0
2017-Dec-01 11:00N 41°48' E 140°39'0 0.0
2017-Dec-01 10:30N 41°48' E 140°39'2 3.4
2017-Dec-01 10:00N 41°47' E 140°40'1 2.0
2017-Dec-01 09:28N 41°46' E 140°41'0 0.1
2017-Dec-01 08:58N 41°46' E 140°41'0 0.0
2017-Dec-01 08:28N 41°46' E 140°41'0 0.0
2017-Dec-01 07:58N 41°46' E 140°41'0 0.1
2017-Dec-01 07:22N 41°46' E 140°41'0 0.1
2017-Dec-01 06:55N 41°46' E 140°41'0 0.1
2017-Dec-01 06:19N 41°46' E 140°41'0 0.1
2017-Dec-01 05:58N 41°46' E 140°41'0 0.0
2017-Dec-01 05:28N 41°46' E 140°41'0 0.1
2017-Dec-01 04:58N 41°46' E 140°41'0 0.0
2017-Dec-01 04:28N 41°46' E 140°41'0 0.1
2017-Dec-01 03:52N 41°46' E 140°41'0 0.0
2017-Dec-01 03:25N 41°46' E 140°41'0 0.0
2017-Dec-01 02:58N 41°46' E 140°41'0 0.1
2017-Dec-01 02:28N 41°46' E 140°41'0 0.0
2017-Dec-01 01:52N 41°46' E 140°41'0 0.0
2017-Dec-01 01:28N 41°46' E 140°41'0 0.0
2017-Dec-01 00:58N 41°46' E 140°41'0 0.0
2017-Dec-01 00:28N 41°46' E 140°41'0 0.0
2017-Nov-30 23:58N 41°46' E 140°41'0 0.1
2017-Nov-30 23:25N 41°46' E 140°41'0 0.0
2017-Nov-30 22:58N 41°46' E 140°41'0 0.0
2017-Nov-30 22:28N 41°46' E 140°41'0 0.0
2017-Nov-30 21:58N 41°46' E 140°41'0 0.1
2017-Nov-30 21:28N 41°46' E 140°41'0 0.0
2017-Nov-30 20:58N 41°46' E 140°41'0 0.1
2017-Nov-30 20:28N 41°46' E 140°41'0 0.1
2017-Nov-30 19:55N 41°46' E 140°41'0 0.1
2017-Nov-30 19:28N 41°46' E 140°41'0 0.0
2017-Nov-30 18:58N 41°46' E 140°41'0 0.0
2017-Nov-30 18:25N 41°46' E 140°41'0 0.0
2017-Nov-30 17:55N 41°46' E 140°41'0 0.0
2017-Nov-30 17:28N 41°46' E 140°41'0 0.1
2017-Nov-30 16:55N 41°46' E 140°41'0 0.1
2017-Nov-30 16:25N 41°46' E 140°41'0 0.1
2017-Nov-30 15:55N 41°46' E 140°41'0 0.0
2017-Nov-30 15:28N 41°46' E 140°41'0 0.0
2017-Nov-30 14:58N 41°46' E 140°41'0 0.0
2017-Nov-30 14:28N 41°46' E 140°41'0 0.0
2017-Nov-30 13:55N 41°46' E 140°41'0 0.0
2017-Nov-30 13:19N 41°46' E 140°41'0 0.0
2017-Nov-30 12:58N 41°46' E 140°41'0 0.0
2017-Nov-30 12:28N 41°46' E 140°41'0 0.1
2017-Nov-30 11:58N 41°46' E 140°41'0 0.8
2017-Nov-30 11:30N 41°46' E 140°41'5 9.3
2017-Nov-30 11:00N 41°42' E 140°44'510.3
2017-Nov-30 10:30N 41°39' E 140°50'4 8.6
2017-Nov-30 10:00N 41°37' E 140°55'4 8.4
2017-Nov-30 09:30N 41°34' E 140°59'5 9.7
2017-Nov-30 09:00N 41°32' E 141°05'510.0
2017-Nov-30 08:30N 41°30' E 141°11'5 9.8
2017-Nov-30 08:00N 41°29' E 141°18'5 9.5
2017-Nov-30 07:30N 41°28' E 141°24'4 8.5
2017-Nov-30 07:00N 41°28' E 141°29'12 9.4
2017-Nov-30 05:44N 41°16' E 141°33'210.1
2017-Nov-30 05:30N 41°14' E 141°33'610.1
2017-Nov-30 04:53N 41°07' E 141°33'  

Dump ship's entire track history